sensor_id;sensor_type;location;lat;lon;timestamp;pressure;altitude;pressure_sealevel;temperature;humidity
3444;BME280;1736;52.068;6.968;2022-07-18T00:02:14;61676.50;;;-145.92;95.69
3444;BME280;1736;52.068;6.968;2022-07-18T00:04:42;61676.50;;;-145.92;96.21
3444;BME280;1736;52.068;6.968;2022-07-18T00:07:09;61676.50;;;-145.92;95.13
3444;BME280;1736;52.068;6.968;2022-07-18T00:09:36;61641.00;;;-145.92;93.91
3444;BME280;1736;52.068;6.968;2022-07-18T00:12:04;61634.75;;;-145.92;94.90
3444;BME280;1736;52.068;6.968;2022-07-18T00:14:30;61659.81;;;-145.92;96.36
3444;BME280;1736;52.068;6.968;2022-07-18T00:16:57;61624.31;;;-145.92;96.98
3444;BME280;1736;52.068;6.968;2022-07-18T00:19:24;61634.75;;;-145.92;96.91
3444;BME280;1736;52.068;6.968;2022-07-18T00:21:52;61647.28;;;-145.92;97.58
3444;BME280;1736;52.068;6.968;2022-07-18T00:24:19;61680.69;;;-145.92;97.75
3444;BME280;1736;52.068;6.968;2022-07-18T00:26:45;61668.16;;;-145.92;97.77
3444;BME280;1736;52.068;6.968;2022-07-18T00:29:12;61655.63;;;-145.92;98.37
3444;BME280;1736;52.068;6.968;2022-07-18T00:31:38;61645.19;;;-145.92;99.71
3444;BME280;1736;52.068;6.968;2022-07-18T00:34:05;61638.91;;;-145.92;98.76
3444;BME280;1736;52.068;6.968;2022-07-18T00:36:31;61668.16;;;-145.92;98.05
3444;BME280;1736;52.068;6.968;2022-07-18T00:38:59;61659.81;;;-145.92;97.83
3444;BME280;1736;52.068;6.968;2022-07-18T00:41:26;61659.81;;;-145.92;98.62
3444;BME280;1736;52.068;6.968;2022-07-18T00:43:53;61655.63;;;-145.92;99.01
3444;BME280;1736;52.068;6.968;2022-07-18T00:46:21;61693.22;;;-145.92;99.19
3444;BME280;1736;52.068;6.968;2022-07-18T00:48:48;61609.69;;;-145.92;97.67
3444;BME280;1736;52.068;6.968;2022-07-18T00:51:14;61670.25;;;-145.92;98.85
3444;BME280;1736;52.068;6.968;2022-07-18T00:53:42;61634.75;;;-145.92;98.77
3444;BME280;1736;52.068;6.968;2022-07-18T00:56:10;61659.81;;;-145.92;98.36
3444;BME280;1736;52.068;6.968;2022-07-18T00:58:37;61645.19;;;-145.92;98.37
3444;BME280;1736;52.068;6.968;2022-07-18T01:01:04;61666.06;;;-145.92;99.10
3444;BME280;1736;52.068;6.968;2022-07-18T01:03:48;61632.66;;;-145.92;99.81
3444;BME280;1736;52.068;6.968;2022-07-18T01:06:15;61668.16;;;-145.92;99.50
3444;BME280;1736;52.068;6.968;2022-07-18T01:08:42;61672.34;;;-145.92;99.17
3444;BME280;1736;52.068;6.968;2022-07-18T01:11:11;61697.38;;;-145.92;99.74
3444;BME280;1736;52.068;6.968;2022-07-18T01:13:37;61657.72;;;-145.92;99.67
3444;BME280;1736;52.068;6.968;2022-07-18T01:16:04;61647.28;;;-145.92;99.82
3444;BME280;1736;52.068;6.968;2022-07-18T01:18:31;61647.28;;;-145.92;100.00
3444;BME280;1736;52.068;6.968;2022-07-18T01:20:59;61680.69;;;-145.92;100.00
3444;BME280;1736;52.068;6.968;2022-07-18T01:23:26;61663.97;;;-145.92;100.00
3444;BME280;1736;52.068;6.968;2022-07-18T01:25:52;61632.66;;;-145.92;100.00
3444;BME280;1736;52.068;6.968;2022-07-18T01:28:19;61666.06;;;-145.92;100.00
3444;BME280;1736;52.068;6.968;2022-07-18T01:30:46;61672.34;;;-145.92;100.00
3444;BME280;1736;52.068;6.968;2022-07-18T01:33:12;61663.97;;;-145.92;100.00
3444;BME280;1736;52.068;6.968;2022-07-18T01:35:39;61655.63;;;-145.92;100.00
3444;BME280;1736;52.068;6.968;2022-07-18T01:38:07;61657.72;;;-145.92;100.00
3444;BME280;1736;52.068;6.968;2022-07-18T01:40:33;61676.50;;;-145.92;100.00
3444;BME280;1736;52.068;6.968;2022-07-18T01:43:00;61659.81;;;-145.92;100.00
3444;BME280;1736;52.068;6.968;2022-07-18T01:45:26;61668.16;;;-145.92;100.00
3444;BME280;1736;52.068;6.968;2022-07-18T01:47:53;61643.09;;;-145.92;100.00
3444;BME280;1736;52.068;6.968;2022-07-18T01:50:20;61676.50;;;-145.92;100.00
3444;BME280;1736;52.068;6.968;2022-07-18T01:52:46;61659.81;;;-145.92;100.00
3444;BME280;1736;52.068;6.968;2022-07-18T01:55:14;61632.66;;;-145.92;100.00
3444;BME280;1736;52.068;6.968;2022-07-18T01:57:41;61678.59;;;-145.92;100.00
3444;BME280;1736;52.068;6.968;2022-07-18T02:00:09;61661.88;;;-145.92;100.00
3444;BME280;1736;52.068;6.968;2022-07-18T02:02:37;61701.56;;;-145.92;100.00
3444;BME280;1736;52.068;6.968;2022-07-18T02:05:05;61663.97;;;-145.92;100.00
3444;BME280;1736;52.068;6.968;2022-07-18T02:07:34;61638.91;;;-145.92;100.00
3444;BME280;1736;52.068;6.968;2022-07-18T02:10:04;61666.06;;;-145.92;100.00
3444;BME280;1736;52.068;6.968;2022-07-18T02:12:33;61647.28;;;-145.92;100.00
3444;BME280;1736;52.068;6.968;2022-07-18T02:14:59;61689.03;;;-145.92;100.00
3444;BME280;1736;52.068;6.968;2022-07-18T02:17:26;61641.00;;;-145.92;100.00
3444;BME280;1736;52.068;6.968;2022-07-18T02:19:52;61653.53;;;-145.92;100.00
3444;BME280;1736;52.068;6.968;2022-07-18T02:22:19;61663.97;;;-145.92;100.00
3444;BME280;1736;52.068;6.968;2022-07-18T02:24:45;61668.16;;;-145.92;100.00
3444;BME280;1736;52.068;6.968;2022-07-18T02:27:12;61636.84;;;-145.92;100.00
3444;BME280;1736;52.068;6.968;2022-07-18T02:29:40;61649.38;;;-145.92;100.00
3444;BME280;1736;52.068;6.968;2022-07-18T02:32:06;61659.81;;;-145.92;100.00
3444;BME280;1736;52.068;6.968;2022-07-18T02:34:33;61676.50;;;-145.92;100.00
3444;BME280;1736;52.068;6.968;2022-07-18T02:37:00;61672.34;;;-145.92;100.00
3444;BME280;1736;52.068;6.968;2022-07-18T02:39:27;61676.50;;;-145.92;100.00
3444;BME280;1736;52.068;6.968;2022-07-18T02:41:53;61649.38;;;-145.92;100.00
3444;BME280;1736;52.068;6.968;2022-07-18T02:44:20;61663.97;;;-145.92;100.00
3444;BME280;1736;52.068;6.968;2022-07-18T02:46:48;61645.19;;;-145.92;100.00
3444;BME280;1736;52.068;6.968;2022-07-18T02:49:15;61638.91;;;-145.92;100.00
3444;BME280;1736;52.068;6.968;2022-07-18T02:51:54;61655.63;;;-145.92;100.00
3444;BME280;1736;52.068;6.968;2022-07-18T02:54:21;61634.75;;;-145.92;100.00
3444;BME280;1736;52.068;6.968;2022-07-18T02:56:47;61643.09;;;-145.92;100.00
3444;BME280;1736;52.068;6.968;2022-07-18T02:59:14;61674.41;;;-145.92;100.00
3444;BME280;1736;52.068;6.968;2022-07-18T03:01:40;61611.78;;;-145.92;100.00
3444;BME280;1736;52.068;6.968;2022-07-18T03:04:08;61684.84;;;-145.92;100.00
3444;BME280;1736;52.068;6.968;2022-07-18T03:06:35;61680.69;;;-145.92;100.00
3444;BME280;1736;52.068;6.968;2022-07-18T03:09:02;61647.28;;;-145.92;100.00
3444;BME280;1736;52.068;6.968;2022-07-18T03:11:28;61676.50;;;-145.92;100.00
3444;BME280;1736;52.068;6.968;2022-07-18T03:13:55;61638.91;;;-145.92;100.00
3444;BME280;1736;52.068;6.968;2022-07-18T03:16:21;61661.88;;;-145.92;100.00
3444;BME280;1736;52.068;6.968;2022-07-18T03:18:48;61674.41;;;-145.92;100.00
3444;BME280;1736;52.068;6.968;2022-07-18T03:21:16;61649.38;;;-145.92;100.00
3444;BME280;1736;52.068;6.968;2022-07-18T03:23:42;61674.41;;;-145.92;100.00
3444;BME280;1736;52.068;6.968;2022-07-18T03:26:09;61643.09;;;-145.92;100.00
3444;BME280;1736;52.068;6.968;2022-07-18T03:28:35;61643.09;;;-145.92;100.00
3444;BME280;1736;52.068;6.968;2022-07-18T03:31:02;61666.06;;;-145.92;100.00
3444;BME280;1736;52.068;6.968;2022-07-18T03:33:29;61666.06;;;-145.92;100.00
3444;BME280;1736;52.068;6.968;2022-07-18T03:35:55;61655.63;;;-145.92;100.00
3444;BME280;1736;52.068;6.968;2022-07-18T03:38:23;61676.50;;;-145.92;100.00
3444;BME280;1736;52.068;6.968;2022-07-18T03:40:50;61626.41;;;-145.92;100.00
3444;BME280;1736;52.068;6.968;2022-07-18T03:43:16;61676.50;;;-145.92;100.00
3444;BME280;1736;52.068;6.968;2022-07-18T03:45:43;61680.69;;;-145.92;100.00
3444;BME280;1736;52.068;6.968;2022-07-18T03:48:09;61651.44;;;-145.92;100.00
3444;BME280;1736;52.068;6.968;2022-07-18T03:50:36;61630.56;;;-145.92;100.00
3444;BME280;1736;52.068;6.968;2022-07-18T03:53:02;61651.44;;;-145.92;100.00
3444;BME280;1736;52.068;6.968;2022-07-18T03:55:30;61663.97;;;-145.92;100.00
3444;BME280;1736;52.068;6.968;2022-07-18T03:57:57;61593.00;;;-145.92;100.00
3444;BME280;1736;52.068;6.968;2022-07-18T04:00:23;61668.16;;;-145.92;100.00
3444;BME280;1736;52.068;6.968;2022-07-18T04:02:50;61678.59;;;-145.92;100.00
3444;BME280;1736;52.068;6.968;2022-07-18T04:05:16;61663.97;;;-145.92;100.00
3444;BME280;1736;52.068;6.968;2022-07-18T04:07:43;61666.06;;;-145.92;100.00
3444;BME280;1736;52.068;6.968;2022-07-18T04:10:10;61618.03;;;-145.92;100.00
3444;BME280;1736;52.068;6.968;2022-07-18T04:12:45;61638.91;;;-145.92;100.00
3444;BME280;1736;52.068;6.968;2022-07-18T04:15:12;61668.16;;;-145.92;100.00
3444;BME280;1736;52.068;6.968;2022-07-18T04:17:38;61672.34;;;-145.92;100.00
3444;BME280;1736;52.068;6.968;2022-07-18T04:20:06;61701.56;;;-145.92;100.00
3444;BME280;1736;52.068;6.968;2022-07-18T04:22:43;61655.63;;;-145.92;100.00
3444;BME280;1736;52.068;6.968;2022-07-18T04:25:10;61632.66;;;-145.92;100.00
3444;BME280;1736;52.068;6.968;2022-07-18T04:27:36;61661.88;;;-145.92;100.00
3444;BME280;1736;52.068;6.968;2022-07-18T04:30:05;61680.69;;;-145.92;100.00
3444;BME280;1736;52.068;6.968;2022-07-18T04:32:32;61663.97;;;-145.92;100.00
3444;BME280;1736;52.068;6.968;2022-07-18T04:34:58;61620.13;;;-145.92;100.00
3444;BME280;1736;52.068;6.968;2022-07-18T04:37:25;61659.81;;;-145.92;100.00
3444;BME280;1736;52.068;6.968;2022-07-18T04:39:51;61663.97;;;-145.92;100.00
3444;BME280;1736;52.068;6.968;2022-07-18T04:42:18;61643.09;;;-145.92;100.00
3444;BME280;1736;52.068;6.968;2022-07-18T04:44:44;61649.38;;;-145.92;100.00
3444;BME280;1736;52.068;6.968;2022-07-18T04:47:12;61651.44;;;-145.92;98.77
3444;BME280;1736;52.068;6.968;2022-07-18T04:49:39;61684.84;;;-145.92;94.52
3444;BME280;1736;52.068;6.968;2022-07-18T04:52:06;61693.22;;;-145.92;92.22
3444;BME280;1736;52.068;6.968;2022-07-18T04:54:32;61643.09;;;-145.92;88.41
3444;BME280;1736;52.068;6.968;2022-07-18T04:56:59;61663.97;;;-145.92;84.72
3444;BME280;1736;52.068;6.968;2022-07-18T04:59:25;61701.56;;;-145.92;80.66
3444;BME280;1736;52.068;6.968;2022-07-18T05:01:52;61649.38;;;-145.92;77.88
3444;BME280;1736;52.068;6.968;2022-07-18T05:04:20;61701.56;;;-145.92;75.46
3444;BME280;1736;52.068;6.968;2022-07-18T05:06:46;61678.59;;;-145.92;73.71
3444;BME280;1736;52.068;6.968;2022-07-18T05:09:13;61661.88;;;-145.92;69.81
3444;BME280;1736;52.068;6.968;2022-07-18T05:11:39;61689.03;;;-145.92;67.80
3444;BME280;1736;52.068;6.968;2022-07-18T05:14:06;61676.50;;;-145.92;64.67
3444;BME280;1736;52.068;6.968;2022-07-18T05:16:32;61628.47;;;-145.92;63.68
3444;BME280;1736;52.068;6.968;2022-07-18T05:18:59;61682.78;;;-145.92;61.98
3444;BME280;1736;52.068;6.968;2022-07-18T05:21:27;61682.78;;;-145.92;60.60
3444;BME280;1736;52.068;6.968;2022-07-18T05:23:53;61672.34;;;-145.92;58.87
3444;BME280;1736;52.068;6.968;2022-07-18T05:26:20;61622.22;;;-145.92;57.60
3444;BME280;1736;52.068;6.968;2022-07-18T05:28:46;61643.09;;;-145.92;56.23
3444;BME280;1736;52.068;6.968;2022-07-18T05:31:13;61638.91;;;-145.92;55.66
3444;BME280;1736;52.068;6.968;2022-07-18T05:33:39;61678.59;;;-145.92;52.81
3444;BME280;1736;52.068;6.968;2022-07-18T05:36:07;61626.41;;;-145.92;52.27
3444;BME280;1736;52.068;6.968;2022-07-18T05:38:35;61659.81;;;-145.92;50.85
3444;BME280;1736;52.068;6.968;2022-07-18T05:41:02;61676.50;;;-145.92;51.29
3444;BME280;1736;52.068;6.968;2022-07-18T05:43:29;61618.03;;;-145.92;50.44
3444;BME280;1736;52.068;6.968;2022-07-18T05:45:55;61607.59;;;-145.92;49.89
3444;BME280;1736;52.068;6.968;2022-07-18T05:48:22;61651.44;;;-145.92;48.40
3444;BME280;1736;52.068;6.968;2022-07-18T05:50:48;61668.16;;;-145.92;48.25
3444;BME280;1736;52.068;6.968;2022-07-18T05:53:15;61659.81;;;-145.92;48.58
3444;BME280;1736;52.068;6.968;2022-07-18T05:55:43;61651.44;;;-145.92;49.34
3444;BME280;1736;52.068;6.968;2022-07-18T05:58:09;61661.88;;;-145.92;49.97
3444;BME280;1736;52.068;6.968;2022-07-18T06:00:36;61676.50;;;-145.92;50.88
3444;BME280;1736;52.068;6.968;2022-07-18T06:03:02;61684.84;;;-145.92;51.46
3444;BME280;1736;52.068;6.968;2022-07-18T06:05:30;61655.63;;;-145.92;52.31
3444;BME280;1736;52.068;6.968;2022-07-18T06:07:56;61659.81;;;-145.92;52.92
3444;BME280;1736;52.068;6.968;2022-07-18T06:10:24;61668.16;;;-145.92;53.16
3444;BME280;1736;52.068;6.968;2022-07-18T06:12:53;61672.34;;;-145.92;52.63
3444;BME280;1736;52.068;6.968;2022-07-18T06:15:19;61649.38;;;-145.92;53.97
3444;BME280;1736;52.068;6.968;2022-07-18T06:17:46;61651.44;;;-145.92;53.16
3444;BME280;1736;52.068;6.968;2022-07-18T06:20:13;61645.19;;;-145.92;51.34
3444;BME280;1736;52.068;6.968;2022-07-18T06:22:39;61666.06;;;-145.92;51.50
3444;BME280;1736;52.068;6.968;2022-07-18T06:25:07;61663.97;;;-145.92;50.46
3444;BME280;1736;52.068;6.968;2022-07-18T06:27:33;61641.00;;;-145.92;51.44
3444;BME280;1736;52.068;6.968;2022-07-18T06:30:02;61624.31;;;-145.92;51.02
3444;BME280;1736;52.068;6.968;2022-07-18T06:32:29;61655.63;;;-145.92;50.53
3444;BME280;1736;52.068;6.968;2022-07-18T06:34:56;61647.28;;;-145.92;49.81
3444;BME280;1736;52.068;6.968;2022-07-18T06:37:23;61628.47;;;-145.92;49.99
3444;BME280;1736;52.068;6.968;2022-07-18T06:39:49;61630.56;;;-145.92;49.66
3444;BME280;1736;52.068;6.968;2022-07-18T06:42:15;61661.88;;;-145.92;49.58
3444;BME280;1736;52.068;6.968;2022-07-18T06:44:42;61672.34;;;-145.92;50.14
3444;BME280;1736;52.068;6.968;2022-07-18T06:47:10;61663.97;;;-145.92;49.38
3444;BME280;1736;52.068;6.968;2022-07-18T06:49:36;61647.28;;;-145.92;49.88
3444;BME280;1736;52.068;6.968;2022-07-18T06:52:03;61643.09;;;-145.92;49.79
3444;BME280;1736;52.068;6.968;2022-07-18T06:54:30;61628.47;;;-145.92;49.43
3444;BME280;1736;52.068;6.968;2022-07-18T06:56:58;61622.22;;;-145.92;48.37
3444;BME280;1736;52.068;6.968;2022-07-18T06:59:25;61643.09;;;-145.92;48.69
3444;BME280;1736;52.068;6.968;2022-07-18T07:01:51;61611.78;;;-145.92;48.10
3444;BME280;1736;52.068;6.968;2022-07-18T07:04:19;61657.72;;;-145.92;47.32
3444;BME280;1736;52.068;6.968;2022-07-18T07:06:46;61628.47;;;-145.92;47.39
3444;BME280;1736;52.068;6.968;2022-07-18T07:09:12;61618.03;;;-145.92;46.73
3444;BME280;1736;52.068;6.968;2022-07-18T07:11:39;61626.41;;;-145.92;46.74
3444;BME280;1736;52.068;6.968;2022-07-18T07:14:05;61613.88;;;-145.92;46.54
3444;BME280;1736;52.068;6.968;2022-07-18T07:16:32;61634.75;;;-145.92;46.03
3444;BME280;1736;52.068;6.968;2022-07-18T07:18:59;61630.56;;;-145.92;46.57
3444;BME280;1736;52.068;6.968;2022-07-18T07:21:26;61647.28;;;-145.92;46.23
3444;BME280;1736;52.068;6.968;2022-07-18T07:23:53;61655.63;;;-145.92;42.89
3444;BME280;1736;52.068;6.968;2022-07-18T07:26:20;61618.03;;;-145.92;41.28
3444;BME280;1736;52.068;6.968;2022-07-18T07:28:46;61620.13;;;-145.92;40.53
3444;BME280;1736;52.068;6.968;2022-07-18T07:31:13;61613.88;;;-145.92;40.42
3444;BME280;1736;52.068;6.968;2022-07-18T07:33:39;61643.09;;;-145.92;39.54
3444;BME280;1736;52.068;6.968;2022-07-18T07:36:06;61622.22;;;-145.92;38.40
3444;BME280;1736;52.068;6.968;2022-07-18T07:38:34;61618.03;;;-145.92;38.82
3444;BME280;1736;52.068;6.968;2022-07-18T07:41:00;61615.94;;;-145.92;38.09
3444;BME280;1736;52.068;6.968;2022-07-18T07:43:27;61615.94;;;-145.92;38.67
3444;BME280;1736;52.068;6.968;2022-07-18T07:45:54;61626.41;;;-145.92;38.43
3444;BME280;1736;52.068;6.968;2022-07-18T07:48:21;61613.88;;;-145.92;38.00
3444;BME280;1736;52.068;6.968;2022-07-18T07:50:48;61597.16;;;-145.92;37.46
3444;BME280;1736;52.068;6.968;2022-07-18T07:53:16;61643.09;;;-145.92;37.11
3444;BME280;1736;52.068;6.968;2022-07-18T07:55:43;61607.59;;;-145.92;36.82
3444;BME280;1736;52.068;6.968;2022-07-18T07:58:10;61613.88;;;-145.92;37.74
3444;BME280;1736;52.068;6.968;2022-07-18T08:00:37;61651.44;;;-145.92;37.80
3444;BME280;1736;52.068;6.968;2022-07-18T08:03:06;61601.34;;;-145.92;37.44
3444;BME280;1736;52.068;6.968;2022-07-18T08:05:34;61618.03;;;-145.92;36.76
3444;BME280;1736;52.068;6.968;2022-07-18T08:08:03;61590.91;;;-145.92;36.38
3444;BME280;1736;52.068;6.968;2022-07-18T08:10:31;61630.56;;;-145.92;36.09
3444;BME280;1736;52.068;6.968;2022-07-18T08:12:59;61563.75;;;-145.92;37.15
3444;BME280;1736;52.068;6.968;2022-07-18T08:15:26;61661.88;;;-145.92;36.26
3444;BME280;1736;52.068;6.968;2022-07-18T08:17:53;61609.69;;;-145.92;36.13
3444;BME280;1736;52.068;6.968;2022-07-18T08:20:20;61630.56;;;-145.92;37.06
3444;BME280;1736;52.068;6.968;2022-07-18T08:22:54;61611.78;;;-145.92;36.56
3444;BME280;1736;52.068;6.968;2022-07-18T08:25:22;61622.22;;;-145.92;36.24
3444;BME280;1736;52.068;6.968;2022-07-18T08:27:49;61647.28;;;-145.92;37.01
3444;BME280;1736;52.068;6.968;2022-07-18T08:30:17;61618.03;;;-145.92;37.24
3444;BME280;1736;52.068;6.968;2022-07-18T08:32:43;61580.47;;;-145.92;37.93
3444;BME280;1736;52.068;6.968;2022-07-18T08:35:10;61655.63;;;-145.92;37.25
3444;BME280;1736;52.068;6.968;2022-07-18T08:37:37;61630.56;;;-145.92;36.68
3444;BME280;1736;52.068;6.968;2022-07-18T08:40:04;61613.88;;;-145.92;36.42
3444;BME280;1736;52.068;6.968;2022-07-18T08:42:32;61624.31;;;-145.92;34.69
3444;BME280;1736;52.068;6.968;2022-07-18T08:45:00;61626.41;;;-145.92;35.81
3444;BME280;1736;52.068;6.968;2022-07-18T08:47:30;61601.34;;;-145.92;36.09
3444;BME280;1736;52.068;6.968;2022-07-18T08:49:57;61622.22;;;-145.92;34.76
3444;BME280;1736;52.068;6.968;2022-07-18T08:52:24;61605.50;;;-145.92;35.38
3444;BME280;1736;52.068;6.968;2022-07-18T08:54:51;61613.88;;;-145.92;36.07
3444;BME280;1736;52.068;6.968;2022-07-18T08:57:18;61613.88;;;-145.92;35.88
3444;BME280;1736;52.068;6.968;2022-07-18T08:59:44;61603.44;;;-145.92;35.41
3444;BME280;1736;52.068;6.968;2022-07-18T09:02:11;61618.03;;;-145.92;36.33
3444;BME280;1736;52.068;6.968;2022-07-18T09:04:40;61611.78;;;-145.92;36.31
3444;BME280;1736;52.068;6.968;2022-07-18T09:07:08;61588.81;;;-145.92;36.41
3444;BME280;1736;52.068;6.968;2022-07-18T09:09:36;61601.34;;;-145.92;34.98
3444;BME280;1736;52.068;6.968;2022-07-18T09:12:04;61605.50;;;-145.92;34.98
3444;BME280;1736;52.068;6.968;2022-07-18T09:14:33;61618.03;;;-145.92;34.77
3444;BME280;1736;52.068;6.968;2022-07-18T09:17:06;61618.03;;;-145.92;34.85
3444;BME280;1736;52.068;6.968;2022-07-18T09:19:33;61597.16;;;-145.92;33.87
3444;BME280;1736;52.068;6.968;2022-07-18T09:22:23;61601.34;;;-145.92;33.86
3444;BME280;1736;52.068;6.968;2022-07-18T09:24:53;61626.41;;;-145.92;33.93
3444;BME280;1736;52.068;6.968;2022-07-18T09:27:31;61601.34;;;-145.92;33.32
3444;BME280;1736;52.068;6.968;2022-07-18T09:33:04;61632.66;;;-145.92;33.18
3444;BME280;1736;52.068;6.968;2022-07-18T09:35:32;61578.38;;;-145.92;33.57
3444;BME280;1736;52.068;6.968;2022-07-18T09:38:03;61630.56;;;-145.92;33.87
3444;BME280;1736;52.068;6.968;2022-07-18T09:40:32;61605.50;;;-145.92;33.06
3444;BME280;1736;52.068;6.968;2022-07-18T09:43:00;61561.66;;;-145.92;33.55
3444;BME280;1736;52.068;6.968;2022-07-18T09:45:29;61611.78;;;-145.92;33.17
3444;BME280;1736;52.068;6.968;2022-07-18T09:47:57;61615.94;;;-145.92;32.11
3444;BME280;1736;52.068;6.968;2022-07-18T09:50:28;61582.56;;;-145.92;33.19
3444;BME280;1736;52.068;6.968;2022-07-18T09:52:57;61609.69;;;-145.92;30.82
3444;BME280;1736;52.068;6.968;2022-07-18T09:55:25;61611.78;;;-145.92;32.21
3444;BME280;1736;52.068;6.968;2022-07-18T09:58:00;61605.50;;;-145.92;30.58
3444;BME280;1736;52.068;6.968;2022-07-18T10:00:29;61597.16;;;-145.92;31.03
3444;BME280;1736;52.068;6.968;2022-07-18T10:02:57;61611.78;;;-145.92;31.25
3444;BME280;1736;52.068;6.968;2022-07-18T10:05:26;61634.75;;;-145.92;30.88
3444;BME280;1736;52.068;6.968;2022-07-18T10:07:53;61601.34;;;-145.92;30.27
3444;BME280;1736;52.068;6.968;2022-07-18T10:10:20;61588.81;;;-145.92;29.62
3444;BME280;1736;52.068;6.968;2022-07-18T10:12:52;61605.50;;;-145.92;29.33
3444;BME280;1736;52.068;6.968;2022-07-18T10:15:20;61601.34;;;-145.92;30.03
3444;BME280;1736;52.068;6.968;2022-07-18T10:17:48;61630.56;;;-145.92;28.57
3444;BME280;1736;52.068;6.968;2022-07-18T10:20:14;61615.94;;;-145.92;30.21
3444;BME280;1736;52.068;6.968;2022-07-18T10:22:42;61601.34;;;-145.92;30.21
3444;BME280;1736;52.068;6.968;2022-07-18T10:25:09;61599.25;;;-145.92;28.78
3444;BME280;1736;52.068;6.968;2022-07-18T10:27:52;61588.81;;;-145.92;28.21
3444;BME280;1736;52.068;6.968;2022-07-18T10:30:30;61595.06;;;-145.92;28.28
3444;BME280;1736;52.068;6.968;2022-07-18T10:32:57;61615.94;;;-145.92;28.88
3444;BME280;1736;52.068;6.968;2022-07-18T10:35:58;61601.34;;;-145.92;28.00
3444;BME280;1736;52.068;6.968;2022-07-18T10:38:24;61618.03;;;-145.92;27.83
3444;BME280;1736;52.068;6.968;2022-07-18T10:41:04;61593.00;;;-145.92;27.10
3444;BME280;1736;52.068;6.968;2022-07-18T10:43:35;61593.00;;;-145.92;26.37
3444;BME280;1736;52.068;6.968;2022-07-18T10:46:04;61551.22;;;-145.92;26.74
3444;BME280;1736;52.068;6.968;2022-07-18T10:49:03;61559.59;;;-145.92;28.18
3444;BME280;1736;52.068;6.968;2022-07-18T10:51:32;61605.50;;;-145.92;28.41
3444;BME280;1736;52.068;6.968;2022-07-18T10:54:09;61580.47;;;-145.92;27.80
3444;BME280;1736;52.068;6.968;2022-07-18T10:57:08;61580.47;;;-145.92;28.18
3444;BME280;1736;52.068;6.968;2022-07-18T10:59:38;61588.81;;;-145.92;27.44
3444;BME280;1736;52.068;6.968;2022-07-18T11:02:06;61605.50;;;-145.92;27.76
3444;BME280;1736;52.068;6.968;2022-07-18T11:04:38;61590.91;;;-145.92;27.84
3444;BME280;1736;52.068;6.968;2022-07-18T11:07:11;61588.81;;;-145.92;27.75
3444;BME280;1736;52.068;6.968;2022-07-18T11:09:43;61572.09;;;-145.92;27.82
3444;BME280;1736;52.068;6.968;2022-07-18T11:12:29;61584.63;;;-145.92;27.13
3444;BME280;1736;52.068;6.968;2022-07-18T11:15:09;61605.50;;;-145.92;27.89
3444;BME280;1736;52.068;6.968;2022-07-18T11:17:59;61630.56;;;-145.92;26.71
3444;BME280;1736;52.068;6.968;2022-07-18T11:20:34;61615.94;;;-145.92;27.23
3444;BME280;1736;52.068;6.968;2022-07-18T11:23:03;61567.94;;;-145.92;27.02
3444;BME280;1736;52.068;6.968;2022-07-18T11:25:30;61580.47;;;-145.92;27.88
3444;BME280;1736;52.068;6.968;2022-07-18T11:27:57;61603.44;;;-145.92;27.65
3444;BME280;1736;52.068;6.968;2022-07-18T11:30:25;61578.38;;;-145.92;27.75
3444;BME280;1736;52.068;6.968;2022-07-18T11:32:52;61559.59;;;-145.92;27.04
3444;BME280;1736;52.068;6.968;2022-07-18T11:35:23;61601.34;;;-145.92;27.67
3444;BME280;1736;52.068;6.968;2022-07-18T11:37:51;61588.81;;;-145.92;27.50
3444;BME280;1736;52.068;6.968;2022-07-18T11:40:18;61565.84;;;-145.92;27.76
3444;BME280;1736;52.068;6.968;2022-07-18T11:42:46;61565.84;;;-145.92;27.33
3444;BME280;1736;52.068;6.968;2022-07-18T11:45:14;61547.06;;;-145.92;27.28
3444;BME280;1736;52.068;6.968;2022-07-18T11:47:47;61563.75;;;-145.92;27.59
3444;BME280;1736;52.068;6.968;2022-07-18T11:50:14;61576.28;;;-145.92;27.20
3444;BME280;1736;52.068;6.968;2022-07-18T11:52:41;61563.75;;;-145.92;28.24
3444;BME280;1736;52.068;6.968;2022-07-18T11:55:10;61563.75;;;-145.92;26.91
3444;BME280;1736;52.068;6.968;2022-07-18T11:57:37;61563.75;;;-145.92;27.06
3444;BME280;1736;52.068;6.968;2022-07-18T12:00:14;61590.91;;;-145.92;26.17
3444;BME280;1736;52.068;6.968;2022-07-18T12:02:41;61584.63;;;-145.92;26.74
3444;BME280;1736;52.068;6.968;2022-07-18T12:05:09;61590.91;;;-145.92;26.79
3444;BME280;1736;52.068;6.968;2022-07-18T12:07:35;61618.03;;;-145.92;26.89
3444;BME280;1736;52.068;6.968;2022-07-18T12:10:14;61588.81;;;-145.92;26.46
3444;BME280;1736;52.068;6.968;2022-07-18T12:12:41;61597.16;;;-145.92;26.73
3444;BME280;1736;52.068;6.968;2022-07-18T12:15:08;61580.47;;;-145.92;27.29
3444;BME280;1736;52.068;6.968;2022-07-18T12:17:43;61601.34;;;-145.92;27.72
3444;BME280;1736;52.068;6.968;2022-07-18T12:20:13;61590.91;;;-145.92;26.95
3444;BME280;1736;52.068;6.968;2022-07-18T12:23:02;61580.47;;;-145.92;27.33
3444;BME280;1736;52.068;6.968;2022-07-18T12:25:57;61588.81;;;-145.92;26.89
3444;BME280;1736;52.068;6.968;2022-07-18T12:28:25;61582.56;;;-145.92;27.47
3444;BME280;1736;52.068;6.968;2022-07-18T12:30:52;61609.69;;;-145.92;27.46
3444;BME280;1736;52.068;6.968;2022-07-18T12:33:20;61578.38;;;-145.92;26.83
3444;BME280;1736;52.068;6.968;2022-07-18T12:35:54;61574.19;;;-145.92;27.39
3444;BME280;1736;52.068;6.968;2022-07-18T12:38:21;61561.66;;;-145.92;26.07
3444;BME280;1736;52.068;6.968;2022-07-18T12:40:49;61576.28;;;-145.92;26.28
3444;BME280;1736;52.068;6.968;2022-07-18T12:43:22;61586.72;;;-145.92;27.04
3444;BME280;1736;52.068;6.968;2022-07-18T12:45:49;61576.28;;;-145.92;27.79
3444;BME280;1736;52.068;6.968;2022-07-18T12:48:16;61586.72;;;-145.92;27.83
3444;BME280;1736;52.068;6.968;2022-07-18T12:50:44;61601.34;;;-145.92;27.08
3444;BME280;1736;52.068;6.968;2022-07-18T12:53:12;61551.22;;;-145.92;26.19
3444;BME280;1736;52.068;6.968;2022-07-18T12:55:39;61599.25;;;-145.92;26.66
3444;BME280;1736;52.068;6.968;2022-07-18T12:58:06;61580.47;;;-145.92;26.60
3444;BME280;1736;52.068;6.968;2022-07-18T13:00:33;61574.19;;;-145.92;26.44
3444;BME280;1736;52.068;6.968;2022-07-18T13:03:00;61555.41;;;-145.92;26.93
3444;BME280;1736;52.068;6.968;2022-07-18T13:05:28;61572.09;;;-145.92;26.79
3444;BME280;1736;52.068;6.968;2022-07-18T13:07:55;61584.63;;;-145.92;27.36